バロー の空港の天気 - METARとTAF

Barrow, Wiley Post-Will Rogers Memorial Airport ( PABR / BRW ) - アメリカ アラスカ州バロー
飛行場実況気象(Metar)
観測時間07/28 16:53 AKDT (07/29 00:53 UTC)
風向・風速東 7m/s 瞬間風速11m/s
視程10km以上
天気現象弱い雨
全天を覆う雲 雲底高度 90m
気温6.1℃
湿度93%
気圧1002.7hPa
METARPABR 290053Z 09014G21KT 10SM -RA OVC003 06/05 A2961 RMK AO2 RAB31 SLP027 P0000 T00610050
過去の天気等 Google飛行場航空写真 Wunderground天気予報

過去48時間のMETAR

飛行場予報(TAF)
発表時間: 7/28 15:42 AKDT (7/28 23:42 UTC)
予報対象時間: 28日16時 AKDT ~ 29日16時 AKDT
風向・風速東 8m/s
視程10km以上
天気現象もや
全天を覆う雲 雲底高度 90m
28日19時 AKDT から
風向・風速南東 7m/s
視程6440m
天気現象弱い雨 もや
全天の8割程度の雲 雲底高度 150m
全天を覆う雲 雲底高度 910m
29日0時 AKDT から
風向・風速南 6m/s
視程8050m
天気現象弱い雨 もや
全天の8割程度の雲 雲底高度 460m
全天を覆う雲 雲底高度 910m
PABR 282342Z 2900/2924 10015KT 6SM BR OVC003
FM290300 13013KT 4SM -RA BR BKN005 OVC030
FM290800 18012KT 5SM -RA BR BKN015 OVC030